Chevery Airport


Codes: CYHR/YHR
Name: Chevery Airport
City: Chevery
Country: Canada
Elevation: 39 ft.
Wikipedia:

Photos at Chevery Airport


   Photos courtesy of SpottingLog. You can add your own sightings and photos by signing up for a free trial today.



No photos found.

Weather at Chevery Airport


Time (UTC)DescriptionTempratureWindCloud coverageVisibilityPressureHumidity
21-Jun-2024 12:00Broken Clouds18°C20 mph, NW79%10000m1012hPa45%
21-Jun-2024 15:00Broken Clouds18°C20 mph, NW63%10000m1012hPa43%
21-Jun-2024 18:00Scattered Clouds18°C22 mph, NW42%10000m1012hPa39%
21-Jun-2024 21:00Scattered Clouds19°C18 mph, NW29%10000m1012hPa35%
22-Jun-2024 00:00Scattered Clouds15°C9 mph, N42%10000m1014hPa48%
22-Jun-2024 03:00Few Clouds12°C9 mph, SE22%10000m1014hPa65%
22-Jun-2024 06:00Scattered Clouds11°C9 mph, S39%10000m1014hPa68%
22-Jun-2024 09:00Broken Clouds12°C9 mph, W58%10000m1014hPa65%
22-Jun-2024 12:00Broken Clouds15°C11 mph, W52%10000m1014hPa57%
22-Jun-2024 15:00Scattered Clouds16°C13 mph, SW38%10000m1012hPa53%
22-Jun-2024 18:00Broken Clouds16°C20 mph, SW63%10000m1012hPa64%
22-Jun-2024 21:00Broken Clouds18°C20 mph, SW52%10000m1010hPa54%
23-Jun-2024 00:00Scattered Clouds13°C18 mph, SW30%10000m1011hPa75%
23-Jun-2024 03:00Clear Sky14°C18 mph, SW8%10000m1010hPa71%
23-Jun-2024 06:00Clear Sky12°C13 mph, SW8%10000m1009hPa81%
23-Jun-2024 09:00Clear Sky11°C13 mph, SW6%10000m1009hPa91%
23-Jun-2024 12:00Few Clouds16°C16 mph, SW11%10000m1008hPa75%
23-Jun-2024 15:00Light Rain15°C20 mph, SW88%10000m1007hPa81%
23-Jun-2024 18:00Overcast Clouds15°C29 mph, SW95%10000m1006hPa82%
23-Jun-2024 21:00Light Rain16°C27 mph, SW68%10000m1006hPa79%
24-Jun-2024 00:00Light Rain12°C18 mph, SW84%10000m1006hPa96%
24-Jun-2024 03:00Light Rain11°C13 mph, SW100%10000m1006hPa97%
24-Jun-2024 06:00Overcast Clouds12°C4 mph, NW100%10000m1006hPa78%
24-Jun-2024 09:00Scattered Clouds11°C7 mph, N47%10000m1008hPa72%
24-Jun-2024 12:00Scattered Clouds14°C7 mph, NE25%10000m1009hPa60%
24-Jun-2024 15:00Clear Sky15°C9 mph, S3%10000m1010hPa59%
24-Jun-2024 18:00Clear Sky14°C18 mph, S7%10000m1009hPa66%
24-Jun-2024 21:00Clear Sky15°C16 mph, SW9%10000m1009hPa78%
25-Jun-2024 00:00Few Clouds13°C16 mph, SW21%10000m1010hPa94%
25-Jun-2024 03:00Clear Sky12°C11 mph, SW4%10000m1011hPa95%
25-Jun-2024 06:00Clear Sky12°C11 mph, SW9%10000m1011hPa96%
25-Jun-2024 09:00Broken Clouds12°C9 mph, SW72%10000m1010hPa94%
25-Jun-2024 12:00Overcast Clouds16°C4 mph, SW86%10000m1010hPa80%
25-Jun-2024 15:00Overcast Clouds17°C7 mph, SE100%10000m1008hPa75%
25-Jun-2024 18:00Overcast Clouds17°C7 mph, SE100%10000m1007hPa69%
25-Jun-2024 21:00Overcast Clouds16°C7 mph, S100%10000m1005hPa71%
26-Jun-2024 00:00Overcast Clouds16°C4 mph, S99%10000m1007hPa72%
26-Jun-2024 03:00Broken Clouds15°C4 mph, E84%10000m1007hPa73%
26-Jun-2024 06:00Scattered Clouds13°C2 mph, W50%10000m1007hPa79%
26-Jun-2024 09:00Clear Sky14°C4 mph, SE2%10000m1007hPa75%